Date,TemperatureHighF,TemperatureAvgF,TemperatureLowF,DewpointHighF,DewpointAvgF,DewpointLowF,HumidityHigh,HumidityAvg,HumidityLow,PressureMaxIn,PressureMinIn,WindSpeedMaxMPH,WindSpeedAvgMPH,GustSpeedMaxMPH,PrecipitationSumIn
2014-1-1,32,18,8,-100,-100,-100,0,0,100,0.00,40.00,0,-999,0,0.00
2014-1-2,25,15,1,-100,-100,-100,0,0,100,0.00,40.00,0,-999,0,0.00
2014-1-3,41,25,12,-100,-100,-100,0,0,100,0.00,40.00,0,-999,0,0.00
2014-1-4,36,24,12,-100,-100,-100,0,0,100,0.00,40.00,0,-999,0,0.00
2014-1-5,10,4,-2,-100,-100,-100,0,0,100,0.00,40.00,0,-999,0,0.00
2014-1-6,5,-2,-6,-100,-100,-100,0,0,100,0.00,40.00,0,-999,0,0.00
2014-1-7,33,17,2,-100,-100,-100,0,0,100,0.00,40.00,0,-999,0,0.00
2014-1-8,37,28,23,-100,-100,-100,0,0,100,0.00,40.00,0,-999,0,0.00
2014-1-9,28,24,20,-100,-100,-100,0,0,100,0.00,40.00,0,-999,0,0.00
2014-1-10,38,33,28,-100,-100,-100,0,0,100,0.00,40.00,0,-999,0,0.00
2014-1-11,46,37,24,-100,-100,-100,0,0,100,0.00,40.00,0,-999,0,0.00
2014-1-12,62,46,36,-100,-100,-100,0,0,100,0.00,40.00,0,-999,0,0.00
2014-1-13,46,38,29,-100,-100,-100,0,0,100,0.00,40.00,0,-999,0,0.00
2014-1-14,41,34,24,-100,-100,-100,0,0,100,0.00,40.00,0,-999,0,0.00
2014-1-15,43,30,18,-100,-100,-100,0,0,100,0.00,40.00,0,-999,0,0.00
2014-1-16,47,37,28,-100,-100,-100,0,0,100,0.00,40.00,0,-999,0,0.00
2014-1-17,36,27,19,-100,-100,-100,0,0,100,0.00,40.00,0,-999,0,0.00
2014-1-18,48,37,29,-100,-100,-100,0,0,100,0.00,40.00,0,-999,0,0.00
2014-1-19,59,37,21,-100,-100,-100,0,0,100,0.00,40.00,0,-999,0,0.00
2014-1-20,49,40,23,-100,-100,-100,0,0,100,0.00,40.00,0,-999,0,0.00
2014-1-21,24,13,4,-100,-100,-100,0,0,100,0.00,40.00,0,-999,0,0.00
2014-1-22,36,26,16,-100,-100,-100,0,0,100,0.00,40.00,0,-999,0,0.00
2014-1-23,14,7,1,-100,-100,-100,0,0,100,0.00,40.00,0,-999,0,0.00
2014-1-24,40,18,5,-100,-100,-100,0,0,100,0.00,40.00,0,-999,0,0.00
2014-1-25,52,45,34,-100,-100,-100,0,0,100,0.00,40.00,0,-999,0,0.00
2014-1-26,55,38,29,-100,-100,-100,0,0,100,0.00,40.00,0,-999,0,0.00
2014-1-27,12,10,6,-100,-100,-100,0,0,100,0.00,40.00,0,-999,0,0.00
2014-1-28,22,11,4,-100,-100,-100,0,0,100,0.00,40.00,0,-999,0,0.00
2014-1-29,42,19,8,-100,-100,-100,0,0,100,0.00,40.00,0,-999,0,0.00
2014-1-30,44,31,25,-100,-100,-100,0,0,100,0.00,40.00,0,-999,0,0.00
2014-1-31,23,19,16,-100,-100,-100,0,0,100,0.00,40.00,0,-999,0,0.00
2014-2-1,22,18,15,-100,-100,-100,0,0,100,0.00,40.00,0,-999,0,0.00
2014-2-2,25,15,9,-100,-100,-100,0,0,100,0.00,40.00,0,-999,0,0.00
2014-2-3,32,21,8,-100,-100,-100,0,0,100,0.00,40.00,0,-999,0,0.00
2014-2-4,24,21,19,-100,-100,-100,0,0,100,0.00,40.00,0,-999,0,0.00
2014-2-5,3,1,-3,-100,-100,-100,0,0,100,0.00,40.00,0,-999,0,0.00
2014-2-6,5,1,-3,-100,-100,-100,0,0,100,0.00,40.00,0,-999,0,0.00
2014-2-7,11,6,2,-100,-100,-100,0,0,100,0.00,40.00,0,-999,0,0.00
2014-2-8,22,17,11,-100,-100,-100,0,0,100,0.00,40.00,0,-999,0,0.00
2014-2-9,22,17,9,-100,-100,-100,0,0,100,0.00,40.00,0,-999,0,0.00
2014-2-10,10,7,4,-100,-100,-100,0,0,100,0.00,40.00,0,-999,0,0.00
2014-2-11,17,8,1,-100,-100,-100,0,0,100,0.00,40.00,0,-999,0,0.00
2014-2-12,30,18,8,-100,-100,-100,0,0,100,0.00,40.00,0,-999,0,0.00
2014-2-13,41,27,21,-100,-100,-100,0,0,100,0.00,40.00,0,-999,0,0.00
2014-2-14,41,36,24,-100,-100,-100,0,0,100,0.00,40.00,0,-999,0,0.00
2014-2-15,50,37,23,-100,-100,-100,0,0,100,0.00,40.00,0,-999,0,0.00
2014-2-16,50,38,24,-100,-100,-100,0,0,100,0.00,40.00,0,-999,0,0.00
2014-2-17,55,43,39,-100,-100,-100,0,0,100,0.00,40.00,0,-999,0,0.00
2014-2-18,64,48,37,-100,-100,-100,0,0,100,0.00,40.00,0,-999,0,0.00
2014-2-19,51,39,29,-100,-100,-100,0,0,100,0.00,40.00,0,-999,0,0.00
2014-2-20,53,44,31,-100,-100,-100,0,0,100,0.00,40.00,0,-999,0,0.00
2014-2-21,55,45,22,-100,-100,-100,0,0,100,0.00,40.00,0,-999,0,0.00
2014-2-22,57,38,27,-100,-100,-100,0,0,100,0.00,40.00,0,-999,0,0.00
2014-2-23,37,29,21,-100,-100,-100,0,0,100,0.00,40.00,0,-999,0,0.00
2014-2-24,43,33,13,-100,-100,-100,0,0,100,0.00,40.00,0,-999,0,0.00
2014-2-25,21,17,13,-100,-100,-100,0,0,100,0.00,40.00,0,-999,0,0.00
2014-2-26,30,15,4,-100,-100,-100,0,0,100,0.00,40.00,0,-999,0,0.00
2014-2-27,43,31,12,-100,-100,-100,0,0,100,0.00,40.00,0,-999,0,0.00
2014-2-28,41,33,27,-100,-100,-100,0,0,100,0.00,40.00,0,-999,0,0.00
2014-3-1,27,12,5,-100,-100,-100,0,0,100,0.00,40.00,0,-999,0,0.00
2014-3-2,3,2,1,-100,-100,-100,0,0,100,0.00,40.00,0,-999,0,0.00
2014-3-3,14,6,-4,-100,-100,-100,0,0,100,0.00,40.00,0,-999,0,0.00
2014-3-4,31,12,6,-100,-100,-100,0,0,100,0.00,40.00,0,-999,0,0.00
2014-3-5,33,29,22,-100,-100,-100,0,0,100,0.00,40.00,0,-999,0,0.00
2014-3-6,36,27,20,-100,-100,-100,0,0,100,0.00,40.00,0,-999,0,0.00
2014-3-7,51,38,31,-100,-100,-100,0,0,100,0.00,40.00,0,-999,0,0.00
2014-3-8,37,27,22,-100,-100,-100,0,0,100,0.00,40.00,0,-999,0,0.00
2014-3-9,55,45,17,-100,-100,-100,0,0,100,0.00,40.00,0,-999,0,0.00
2014-3-10,71,50,35,-100,-100,-100,0,0,100,0.00,40.00,0,-999,0,0.00
2014-3-11,66,50,32,-100,-100,-100,0,0,100,0.00,40.00,0,-999,0,0.00
2014-3-12,54,48,29,-100,-100,-100,0,0,100,0.00,40.00,0,-999,0,0.00
2014-3-13,63,57,48,-100,-100,-100,0,0,100,0.00,40.00,0,-999,0,0.00
2014-3-14,64,53,41,-100,-100,-100,0,0,100,0.00,40.00,0,-999,0,0.00
2014-3-15,66,46,30,-100,-100,-100,0,0,100,0.00,40.00,0,-999,0,0.00
2014-3-16,43,32,23,-100,-100,-100,0,0,100,0.00,40.00,0,-999,0,0.00
2014-3-17,52,30,17,-100,-100,-100,0,0,100,0.00,40.00,0,-999,0,0.00
2014-3-18,58,45,37,-100,-100,-100,0,0,100,0.00,40.00,0,-999,0,0.00
2014-3-19,46,42,37,-100,-100,-100,0,0,100,0.00,40.00,0,-999,0,0.00
2014-3-20,67,47,35,-100,-100,-100,0,0,100,0.00,40.00,0,-999,0,0.00
2014-3-21,62,50,44,-100,-100,-100,0,0,100,0.00,40.00,0,-999,0,0.00
2014-3-22,47,34,24,-100,-100,-100,0,0,100,0.00,40.00,0,-999,0,0.00
2014-3-23,43,32,17,-100,-100,-100,0,0,100,0.00,40.00,0,-999,0,0.00
2014-3-24,44,31,22,-100,-100,-100,0,0,100,0.00,40.00,0,-999,0,0.00
2014-3-25,46,34,24,-100,-100,-100,0,0,100,0.00,40.00,0,-999,0,0.00
2014-3-26,40,33,28,-100,-100,-100,0,0,100,0.00,40.00,0,-999,0,0.00
2014-3-27,63,55,40,-100,-100,-100,0,0,100,0.00,40.00,0,-999,0,0.00
2014-3-28,52,38,29,-100,-100,-100,0,0,100,0.00,40.00,0,-999,0,0.00
2014-3-29,60,47,24,-100,-100,-100,0,0,100,0.00,40.00,0,-999,0,0.00
2014-3-30,68,57,41,-100,-100,-100,0,0,100,0.00,40.00,0,-999,0,0.00
2014-3-31,68,59,41,-100,-100,-100,0,0,100,0.00,40.00,0,-999,0,0.00
2014-4-1,53,41,25,-100,-100,-100,0,0,100,0.00,40.00,0,-999,0,0.00
2014-4-2,67,48,39,-100,-100,-100,0,0,100,0.00,40.00,0,-999,0,0.00
2014-4-3,46,43,34,-100,-100,-100,0,0,100,0.00,40.00,0,-999,0,0.00
2014-4-4,52,38,28,-100,-100,-100,0,0,100,0.00,40.00,0,-999,0,0.00
2014-4-5,58,43,25,-100,-100,-100,0,0,100,0.00,40.00,0,-999,0,0.00
2014-4-6,55,48,41,-100,-100,-100,0,0,100,0.00,40.00,0,-999,0,0.00
2014-4-7,55,48,39,-100,-100,-100,0,0,100,0.00,40.00,0,-999,0,0.00
2014-4-8,62,46,32,-100,-100,-100,0,0,100,0.00,40.00,0,-999,0,0.00
2014-4-9,75,53,31,-100,-100,-100,0,0,100,0.00,40.00,0,-999,0,0.00
2014-4-10,70,59,46,-100,-100,-100,0,0,100,0.00,40.00,0,-999,0,0.00
2014-4-11,74,56,43,-100,-100,-100,0,0,100,0.00,40.00,0,-999,0,0.00
2014-4-12,79,66,55,-100,-100,-100,0,0,100,0.00,40.00,0,-999,0,0.00
2014-4-13,68,53,32,-100,-100,-100,0,0,100,0.00,40.00,0,-999,0,0.00
2014-4-14,44,33,25,-100,-100,-100,0,0,100,0.00,40.00,0,-999,0,0.00
2014-4-15,58,44,20,-100,-100,-100,0,0,100,0.00,40.00,0,-999,0,0.00
2014-4-16,67,53,43,-100,-100,-100,0,0,100,0.00,40.00,0,-999,0,0.00
2014-4-17,47,37,32,-100,-100,-100,0,0,100,0.00,40.00,0,-999,0,0.00
2014-4-18,67,54,26,-100,-100,-100,0,0,100,0.00,40.00,0,-999,0,0.00
2014-4-19,74,61,48,-100,-100,-100,0,0,100,0.00,40.00,0,-999,0,0.00
2014-4-20,67,60,56,-100,-100,-100,0,0,100,0.00,40.00,0,-999,0,0.00
2014-4-21,70,61,51,-100,-100,-100,0,0,100,0.00,40.00,0,-999,0,0.00
2014-4-22,72,57,44,-100,-100,-100,0,0,100,0.00,40.00,0,-999,0,0.00
2014-4-23,79,68,49,-100,-100,-100,0,0,100,0.00,40.00,0,-999,0,0.00
2014-4-24,64,55,44,-100,-100,-100,0,0,100,0.00,40.00,0,-999,0,0.00
2014-4-25,75,54,42,-100,-100,-100,0,0,100,0.00,40.00,0,-999,0,0.00
2014-4-26,79,64,55,-100,-100,-100,0,0,100,0.00,40.00,0,-999,0,0.00
2014-4-27,74,65,59,-100,-100,-100,0,0,100,0.00,40.00,0,-999,0,0.00
2014-4-28,56,50,43,-100,-100,-100,0,0,100,0.00,40.00,0,-999,0,0.00
2014-4-29,43,39,35,-100,-100,-100,0,0,100,0.00,40.00,0,-999,0,0.00
2014-4-30,50,43,34,-100,-100,-100,0,0,100,0.00,40.00,0,-999,0,0.00
2014-5-1,58,52,38,-100,-100,-100,0,0,100,0.00,40.00,0,-999,0,0.00
2014-5-2,69,54,32,-100,-100,-100,0,0,100,0.00,40.00,0,-999,0,0.00
2014-5-3,83,60,44,-100,-100,-100,0,0,100,0.00,40.00,0,-999,0,0.00
2014-5-4,81,66,58,-100,-100,-100,0,0,100,0.00,40.00,0,-999,0,0.00
2014-5-5,77,67,62,-100,-100,-100,0,0,100,0.00,40.00,0,-999,0,0.00
2014-5-13,62,55,51,-100,-100,-100,0,0,100,0.00,40.00,0,-999,0,0.00
2014-5-14,65,50,38,-100,-100,-100,0,0,100,0.00,40.00,0,-999,0,0.00
2014-5-15,60,48,40,-100,-100,-100,0,0,100,0.00,40.00,0,-999,0,0.00
2014-5-16,60,46,36,-100,-100,-100,0,0,100,0.00,40.00,0,-999,0,0.00
2014-5-17,64,52,36,-100,-100,-100,0,0,100,0.00,40.00,0,-999,0,0.00
2014-5-18,72,55,42,-100,-100,-100,0,0,100,0.00,40.00,0,-999,0,0.00
2014-5-19,81,66,58,-100,-100,-100,0,0,100,0.00,40.00,0,-999,0,0.00
2014-5-20,86,73,63,-100,-100,-100,0,0,100,0.00,40.00,0,-999,0,0.00
2014-5-21,84,73,61,-100,-100,-100,0,0,100,0.00,40.00,0,-999,0,0.00
2014-5-22,80,70,60,-100,-100,-100,0,0,100,0.00,40.00,0,-999,0,0.00
2014-5-23,66,62,58,-100,-100,-100,0,0,100,0.00,40.00,0,-999,0,0.00
2014-5-24,76,64,59,-100,-100,-100,0,0,100,0.00,40.00,0,-999,0,0.00
2014-5-25,74,64,60,-100,-100,-100,0,0,100,0.00,40.00,0,-999,0,0.00
2014-5-26,77,65,60,-100,-100,-100,0,0,100,0.00,40.00,0,-999,0,0.00
2014-5-27,74,63,58,-100,-100,-100,0,0,100,0.00,40.00,0,-999,0,0.00
2014-5-28,81,70,58,-100,-100,-100,0,0,100,0.00,40.00,0,-999,0,0.00
2014-5-29,83,71,61,-100,-100,-100,0,0,100,0.00,40.00,0,-999,0,0.00
2014-5-30,78,68,60,-100,-100,-100,0,0,100,0.00,40.00,0,-999,0,0.00
2014-5-31,79,71,60,-100,-100,-100,0,0,100,0.00,40.00,0,-999,0,0.00
2014-6-1,79,70,63,-100,-100,-100,0,0,100,0.00,40.00,0,-999,0,0.00
2014-6-2,81,72,60,-100,-100,-100,0,0,100,0.00,40.00,0,-999,0,0.00
2014-6-3,80,73,66,-100,-100,-100,0,0,100,0.00,40.00,0,-999,0,0.00
2014-6-4,85,77,70,-100,-100,-100,0,0,100,0.00,40.00,0,-999,0,0.00
2014-6-5,79,69,60,-100,-100,-100,0,0,100,0.00,40.00,0,-999,0,0.00
2014-6-6,75,66,61,-100,-100,-100,0,0,100,0.00,40.00,0,-999,0,0.00
2014-6-7,74,67,58,-100,-100,-100,0,0,100,0.00,40.00,0,-999,0,0.00
2014-6-8,74,65,56,-100,-100,-100,0,0,100,0.00,40.00,0,-999,0,0.00
2014-6-9,66,61,57,-100,-100,-100,0,0,100,0.00,40.00,0,-999,0,0.00
2014-6-10,74,64,56,-100,-100,-100,0,0,100,0.00,40.00,0,-999,0,0.00
2014-6-11,80,68,56,-100,-100,-100,0,0,100,0.00,40.00,0,-999,0,0.00
2014-6-12,74,65,58,-100,-100,-100,0,0,100,0.00,40.00,0,-999,0,0.00
2014-6-13,75,62,53,-100,-100,-100,0,0,100,0.00,40.00,0,-999,0,0.00
2014-6-14,80,70,62,-100,-100,-100,0,0,100,0.00,40.00,0,-999,0,0.00
2014-6-15,75,66,57,-100,-100,-100,0,0,100,0.00,40.00,0,-999,0,0.00
2014-6-16,81,74,67,-100,-100,-100,0,0,100,0.00,40.00,0,-999,0,0.00
2014-6-17,82,74,70,-100,-100,-100,0,0,100,0.00,40.00,0,-999,0,0.00
2014-6-18,81,77,70,-100,-100,-100,0,0,100,0.00,40.00,0,-999,0,0.00
2014-6-19,82,74,68,-100,-100,-100,0,0,100,0.00,40.00,0,-999,0,0.00
2014-6-20,84,77,67,-100,-100,-100,0,0,100,0.00,40.00,0,-999,0,0.00
2014-6-21,86,77,68,-100,-100,-100,0,0,100,0.00,40.00,0,-999,0,0.00
2014-6-22,84,72,61,-100,-100,-100,0,0,100,0.00,40.00,0,-999,0,0.00
2014-6-23,77,66,62,-100,-100,-100,0,0,100,0.00,40.00,0,-999,0,0.00
2014-6-24,75,66,61,-100,-100,-100,0,0,100,0.00,40.00,0,-999,0,0.00
2014-6-25,79,68,59,-100,-100,-100,0,0,100,0.00,40.00,0,-999,0,0.00
2014-6-26,71,68,64,-100,-100,-100,0,0,100,0.00,40.00,0,-999,0,0.00
2014-6-27,74,71,67,-100,-100,-100,0,0,100,0.00,40.00,0,-999,0,0.00
2014-6-28,75,65,60,-100,-100,-100,0,0,100,0.00,40.00,0,-999,0,0.00
2014-6-29,80,71,65,-100,-100,-100,0,0,100,0.00,40.00,0,-999,0,0.00
2014-6-30,84,79,71,-100,-100,-100,0,0,100,0.00,40.00,0,-999,0,0.00
2014-7-1,79,71,62,-100,-100,-100,0,0,100,0.00,40.00,0,-999,0,0.00
2014-7-2,74,65,55,-100,-100,-100,0,0,100,0.00,40.00,0,-999,0,0.00
2014-7-3,78,67,54,-100,-100,-100,0,0,100,0.00,40.00,0,-999,0,0.00
2014-7-4,79,70,60,-100,-100,-100,0,0,100,0.00,40.00,0,-999,0,0.00
2014-7-5,84,73,68,-100,-100,-100,0,0,100,0.00,40.00,0,-999,0,0.00
2014-7-6,87,78,69,-100,-100,-100,0,0,100,0.00,40.00,0,-999,0,0.00
2014-7-7,91,76,68,-100,-100,-100,0,0,100,0.00,40.00,0,-999,0,0.00
2014-7-8,79,74,66,-100,-100,-100,0,0,100,0.00,40.00,0,-999,0,0.00
2014-7-9,79,72,63,-100,-100,-100,0,0,100,0.00,40.00,0,-999,0,0.00
2014-7-10,79,67,60,-100,0,200,0,0,100,0.00,40.00,0,0,0,0.00
2014-7-11,86,73,64,-100,0,200,0,0,100,0.00,40.00,0,0,0,0.00
2014-7-12,85,76,69,-100,0,200,0,0,100,0.00,40.00,0,0,0,0.00
2014-7-13,80,74,69,-100,0,200,0,0,100,0.00,40.00,0,0,0,0.00
2014-7-14,82,74,64,-100,0,200,0,0,100,0.00,40.00,0,0,0,0.00
2014-7-15,76,66,51,-100,0,200,0,0,100,0.00,40.00,0,0,0,0.00
2014-7-16,63,60,56,-100,0,200,0,0,100,0.00,40.00,0,0,0,0.00
2014-7-17,64,59,54,-100,0,200,0,0,100,0.00,40.00,0,0,0,0.00
2014-7-18,73,63,57,-100,0,200,0,0,100,0.00,40.00,0,0,0,0.00
2014-7-19,77,63,55,-100,0,200,0,0,100,0.00,40.00,0,0,0,0.00
2014-7-20,82,71,61,-100,0,200,0,0,100,0.00,40.00,0,0,0,0.00
2014-7-21,86,77,68,-100,0,200,0,0,100,0.00,40.00,0,0,0,0.00
2014-7-22,91,78,72,-100,0,200,0,0,100,0.00,40.00,0,0,0,0.00
2014-7-23,82,77,72,-100,0,200,0,0,100,0.00,40.00,0,0,0,0.00
2014-7-24,84,78,65,-100,0,200,0,0,100,0.00,40.00,0,0,0,0.00
2014-7-25,90,84,70,-100,0,200,0,0,100,0.00,40.00,0,0,0,0.00
2014-7-26,93,80,73,-100,0,200,0,0,100,0.00,40.00,0,0,0,0.00
2014-7-27,81,76,68,-100,0,200,0,0,100,0.00,40.00,0,0,0,0.00
2014-7-28,83,70,60,-100,0,200,0,0,100,0.00,40.00,0,0,0,0.00
2014-7-29,84,69,59,-100,0,200,0,0,100,0.00,40.00,0,0,0,0.00
2014-7-30,67,63,61,-100,0,200,0,0,100,0.00,40.00,0,0,0,0.00
2014-7-31,79,64,53,-100,0,200,0,0,100,0.00,40.00,0,0,0,0.00
2014-8-1,85,73,60,-100,0,200,0,0,100,0.00,40.00,0,0,0,0.00
2014-8-2,85,77,65,-100,0,200,0,0,100,0.00,40.00,0,0,0,0.00
2014-8-3,85,74,65,-100,0,200,0,0,100,0.00,40.00,0,0,0,0.00
2014-8-4,86,78,67,-100,0,200,0,0,100,0.00,40.00,0,0,0,0.00
2014-8-5,86,76,70,-100,0,200,0,0,100,0.00,40.00,0,0,0,0.00
2014-8-6,87,76,68,-100,0,200,0,0,100,0.00,40.00,0,0,0,0.00
2014-8-7,84,76,69,-100,0,200,0,0,100,0.00,40.00,0,0,0,0.00
2014-8-8,82,72,65,-100,0,200,0,0,100,0.00,40.00,0,0,0,0.00
2014-8-9,85,73,65,-100,0,200,0,0,100,0.00,40.00,0,0,0,0.00
2014-8-10,79,71,63,-100,0,200,0,0,100,0.00,40.00,0,0,0,0.00
2014-8-11,81,69,63,-100,0,200,0,0,100,0.00,40.00,0,0,0,0.00
2014-8-12,79,64,55,-100,0,200,0,0,100,0.00,40.00,0,0,0,0.00
2014-8-13,78,64,55,-100,0,200,0,0,100,0.00,40.00,0,0,0,0.00
2014-8-14,81,69,62,-100,0,200,0,0,100,0.00,40.00,0,0,0,0.00
2014-8-15,85,72,67,-100,0,200,0,0,100,0.00,40.00,0,0,0,0.00
2014-8-16,86,74,69,-100,0,200,0,0,100,0.00,40.00,0,0,0,0.00
2014-8-17,87,75,65,-100,0,200,0,0,100,0.00,40.00,0,0,0,0.00
2014-8-18,86,74,63,-100,0,200,0,0,100,0.00,40.00,0,0,0,0.00
2014-8-19,84,77,74,-100,0,200,0,0,100,0.00,40.00,0,0,0,0.00
2014-8-20,85,77,71,-100,0,200,0,0,100,0.00,40.00,0,0,0,0.00
2014-8-21,89,81,72,-100,0,200,0,0,100,0.00,40.00,0,0,0,0.00
2014-8-22,86,77,73,-100,0,200,0,0,100,0.00,40.00,0,0,0,0.00
2014-8-23,89,77,70,-100,0,200,0,0,100,0.00,40.00,0,0,0,0.00
2014-8-24,91,78,72,-100,0,200,0,0,100,0.00,40.00,0,0,0,0.00
2014-8-25,79,75,71,-100,0,200,0,0,100,0.00,40.00,0,0,0,0.00
2014-8-26,84,76,67,-100,0,200,0,0,100,0.00,40.00,0,0,0,0.00
2014-8-27,84,78,72,-100,0,200,0,0,100,0.00,40.00,0,0,0,0.00
2014-8-28,75,72,68,-100,0,200,0,0,100,0.00,40.00,0,0,0,0.00
2014-8-29,79,69,63,-100,0,200,0,0,100,0.00,40.00,0,0,0,0.00
2014-8-30,87,76,60,-100,0,200,0,0,100,0.00,40.00,0,0,0,0.00
2014-8-31,86,73,68,-100,0,200,0,0,100,0.00,40.00,0,0,0,0.00
2014-9-1,79,68,59,-100,0,200,0,0,100,0.00,40.00,0,0,0,0.00
2014-9-2,82,69,65,-100,0,200,0,0,100,0.00,40.00,0,0,0,0.00
2014-9-3,87,76,66,-100,0,200,0,0,100,0.00,40.00,0,0,0,0.00
2014-9-4,88,78,72,-100,0,200,0,0,100,0.00,40.00,0,0,0,0.00
2014-9-5,77,70,58,-100,0,200,0,0,100,0.00,40.00,0,0,0,0.00
2014-9-6,73,59,53,-100,0,200,0,0,100,0.00,40.00,0,0,0,0.00
2014-9-7,77,58,48,-100,0,200,0,0,100,0.00,40.00,0,0,0,0.00
2014-9-8,82,69,58,-100,0,200,0,0,100,0.00,40.00,0,0,0,0.00
2014-9-9,87,74,68,-100,0,200,0,0,100,0.00,40.00,0,0,0,0.00
2014-9-10,77,66,57,-100,0,200,0,0,100,0.00,40.00,0,0,0,0.00
2014-9-11,66,58,52,-100,0,200,0,0,100,0.00,40.00,0,0,0,0.00
2014-9-12,52,48,45,-100,0,200,0,0,100,0.00,40.00,0,0,0,0.00
2014-9-13,65,48,34,-100,0,200,0,0,100,0.00,40.00,0,0,0,0.00
2014-9-14,75,60,46,-100,0,200,0,0,100,0.00,40.00,0,0,0,0.00
2014-9-15,75,65,61,-100,0,200,0,0,100,0.00,40.00,0,0,0,0.00
2014-9-16,76,63,51,-100,0,200,0,0,100,0.00,40.00,0,0,0,0.00
2014-9-17,86,69,62,-100,0,200,0,0,100,0.00,40.00,0,0,0,0.00
2014-9-18,82,69,63,-100,0,200,0,0,100,0.00,40.00,0,0,0,0.00
2014-9-19,81,70,60,-100,0,200,0,0,100,0.00,40.00,0,0,0,0.00
2014-9-20,83,71,63,-100,0,200,0,0,100,0.00,40.00,0,0,0,0.00
2014-9-21,76,68,53,-100,0,200,0,0,100,0.00,40.00,0,0,0,0.00
2014-9-22,75,62,49,-100,0,200,0,0,100,0.00,40.00,0,0,0,0.00
2014-9-23,73,63,55,-100,0,200,0,0,100,0.00,40.00,0,0,0,0.00
2014-9-24,73,61,54,-100,0,200,0,0,100,0.00,40.00,0,0,0,0.00
2014-9-25,80,69,58,-100,0,200,0,0,100,0.00,40.00,0,0,0,0.00
2014-9-26,79,63,56,-100,0,200,0,0,100,0.00,40.00,0,0,0,0.00
2014-9-27,79,68,55,-100,0,200,0,0,100,0.00,40.00,0,0,0,0.00
2014-9-28,80,68,55,-100,0,200,0,0,100,0.00,40.00,0,0,0,0.00
2014-9-29,79,65,56,-100,0,200,0,0,100,0.00,40.00,0,0,0,0.00
2014-9-30,79,69,60,-100,0,200,0,0,100,0.00,40.00,0,0,0,0.00
2014-10-1,81,69,63,-100,0,200,0,0,100,0.00,40.00,0,0,0,0.00
2014-10-2,67,61,49,-100,0,200,0,0,100,0.00,40.00,0,0,0,0.00
2014-10-3,56,48,42,-100,0,200,0,0,100,0.00,40.00,0,0,0,0.00
2014-10-4,67,52,33,-100,0,200,0,0,100,0.00,40.00,0,0,0,0.00
2014-10-5,75,62,46,-100,0,200,0,0,100,0.00,40.00,0,0,0,0.00
2014-10-6,76,61,47,-100,0,200,0,0,100,0.00,40.00,0,0,0,0.00
2014-10-7,81,62,50,-100,0,200,0,0,100,0.00,40.00,0,0,0,0.00
2014-10-8,77,64,53,-100,0,200,0,0,100,0.00,40.00,0,0,0,0.00
2014-10-9,77,67,60,-100,0,200,0,0,100,0.00,40.00,0,0,0,0.00
2014-10-10,55,46,43,-100,0,200,0,0,100,0.00,40.00,0,0,0,0.00
2014-10-11,59,48,42,-100,0,200,0,0,100,0.00,40.00,0,0,0,0.00
2014-10-12,60,47,41,-100,0,200,0,0,100,0.00,40.00,0,0,0,0.00
2014-10-13,52,49,47,-100,0,200,0,0,100,0.00,40.00,0,0,0,0.00
2014-10-14,65,51,41,-100,0,200,0,0,100,0.00,40.00,0,0,0,0.00
2014-10-15,69,52,36,-100,0,200,0,0,100,0.00,40.00,0,0,0,0.00
2014-10-16,72,60,49,-100,0,200,0,0,100,0.00,40.00,0,0,0,0.00
2014-10-17,67,54,42,-100,0,200,0,0,100,0.00,40.00,0,0,0,0.00
2014-10-18,62,48,37,-100,0,200,0,0,100,0.00,40.00,0,0,0,0.00
2014-10-19,66,53,41,-100,0,200,0,0,100,0.00,40.00,0,0,0,0.00
2014-10-20,74,62,48,-100,0,200,0,0,100,0.00,40.00,0,0,0,0.00
2014-10-21,75,57,45,-100,0,200,0,0,100,0.00,40.00,0,0,0,0.00
2014-10-22,73,62,53,-100,0,200,0,0,100,0.00,40.00,0,0,0,0.00
2014-10-23,67,61,56,-100,0,200,0,0,100,0.00,40.00,0,0,0,0.00
2014-10-24,75,60,51,-100,0,200,0,0,100,0.00,40.00,0,0,0,0.00
2014-10-25,80,61,49,-100,0,200,0,0,100,0.00,40.00,0,0,0,0.00
2014-10-26,81,70,59,-100,0,200,0,0,100,0.00,40.00,0,0,0,0.00
2014-10-27,68,62,55,-100,0,200,0,0,100,0.00,40.00,0,0,0,0.00
2014-10-28,63,57,37,-100,0,200,0,0,100,0.00,40.00,0,0,0,0.00
2014-10-29,67,52,34,-100,0,200,0,0,100,0.00,40.00,0,0,0,0.00
2014-10-30,67,54,46,-100,0,200,0,0,100,0.00,40.00,0,0,0,0.00
2014-10-31,48,41,33,-100,0,200,0,0,100,0.00,40.00,0,0,0,0.00
2014-11-1,50,42,23,-100,0,200,0,0,100,0.00,40.00,0,0,0,0.00
2014-11-2,56,47,41,-100,0,200,0,0,100,0.00,40.00,0,0,0,0.00
2014-11-3,60,52,46,-100,0,200,0,0,100,0.00,40.00,0,0,0,0.00
2014-11-4,46,40,37,-100,0,200,0,0,100,0.00,40.00,0,0,0,0.00
2014-11-5,62,44,33,-100,0,200,0,0,100,0.00,40.00,0,0,0,0.00
2014-11-6,56,46,36,-100,0,200,0,0,100,0.00,40.00,0,0,0,0.00
2014-11-7,64,49,34,-100,0,200,0,0,100,0.00,40.00,0,0,0,0.00
2014-11-8,53,43,33,-100,0,200,0,0,100,0.00,40.00,0,0,0,0.00
2014-11-9,63,48,36,-100,0,200,0,0,100,0.00,40.00,0,0,0,0.00
2014-11-10,67,45,29,-100,0,200,0,0,100,0.00,40.00,0,0,0,0.00
2014-11-11,29,23,15,-100,0,200,0,0,100,0.00,40.00,0,0,0,0.00
2014-11-12,19,14,9,-100,0,200,0,0,100,0.00,40.00,0,0,0,0.00
2014-11-13,25,16,10,-100,0,200,0,0,100,0.00,40.00,0,0,0,0.00
2014-11-14,31,21,10,-100,0,200,0,0,100,0.00,40.00,0,0,0,0.00
2014-11-15,31,26,20,-100,0,200,0,0,100,0.00,40.00,0,0,0,0.00
2014-11-16,24,13,6,-100,0,200,0,0,100,0.00,40.00,0,0,0,0.00
2014-11-17,22,14,6,-100,0,200,0,0,100,0.00,40.00,0,0,0,0.00
2014-11-18,32,17,1,-100,0,200,0,0,100,0.00,40.00,0,0,0,0.00
2014-11-19,43,30,22,-100,0,200,0,0,100,0.00,40.00,0,0,0,0.00
2014-11-20,46,27,17,-100,0,200,0,0,100,0.00,40.00,0,0,0,0.00
2014-11-21,39,29,22,-100,0,200,0,0,100,0.00,40.00,0,0,0,0.00
2014-11-22,55,44,37,-100,0,200,0,0,100,0.00,40.00,0,0,0,0.00
2014-11-23,49,42,34,-100,0,200,0,0,100,0.00,40.00,0,0,0,0.00
2014-11-24,44,36,27,-100,0,200,0,0,100,0.00,40.00,0,0,0,0.00
2014-11-25,44,32,18,-100,0,200,0,0,100,0.00,40.00,0,0,0,0.00
2014-11-26,40,34,24,-100,0,200,0,0,100,0.00,40.00,0,0,0,0.00
2014-11-27,40,33,22,-100,0,200,0,0,100,0.00,40.00,0,0,0,0.00
2014-11-28,53,42,32,-100,0,200,0,0,100,0.00,40.00,0,0,0,0.00
2014-11-29,64,50,36,-100,0,200,0,0,100,0.00,40.00,0,0,0,0.00
2014-11-30,53,28,15,-100,0,200,0,0,100,0.00,40.00,0,0,0,0.00
2014-12-1,25,15,10,-100,0,200,0,0,100,0.00,40.00,0,0,0,0.00
2014-12-2,37,21,13,-100,0,200,0,0,100,0.00,40.00,0,0,0,0.00
2014-12-3,41,28,19,-100,0,200,0,0,100,0.00,40.00,0,0,0,0.00
2014-12-4,46,36,30,-100,0,200,0,0,100,0.00,40.00,0,0,0,0.00
2014-12-5,46,40,39,-100,0,200,0,0,100,0.00,40.00,0,0,0,0.00
2014-12-6,34,33,31,-100,0,200,0,0,100,0.00,40.00,0,0,0,0.00
2014-12-7,38,36,31,-100,0,200,0,0,100,0.00,40.00,0,0,0,0.00
2014-12-8,51,41,34,-100,0,200,0,0,100,0.00,40.00,0,0,0,0.00
2014-12-9,42,34,22,-100,0,200,0,0,100,0.00,40.00,0,0,0,0.00
2014-12-10,39,34,25,-100,0,200,0,0,100,0.00,40.00,0,0,0,0.00
2014-12-11,41,36,31,-100,0,200,0,0,100,0.00,40.00,0,0,0,0.00
2014-12-12,46,42,39,-100,0,200,0,0,100,0.00,40.00,0,0,0,0.00
2014-12-13,49,46,42,-100,0,200,0,0,100,0.00,40.00,0,0,0,0.00
2014-12-14,52,50,47,-100,0,200,0,0,100,0.00,40.00,0,0,0,0.00
2014-12-15,48,38,25,-100,0,200,0,0,100,0.00,40.00,0,0,0,0.00
2014-12-16,33,28,23,-100,0,200,0,0,100,0.00,40.00,0,0,0,0.00
2014-12-17,22,21,20,-100,0,200,0,0,100,0.00,40.00,0,0,0,0.00
2014-12-18,27,25,22,-100,0,200,0,0,100,0.00,40.00,0,0,0,0.00
2014-12-19,29,27,23,-100,0,200,0,0,100,0.00,40.00,0,0,0,0.00
2014-12-20,41,33,27,-100,0,200,0,0,100,0.00,40.00,0,0,0,0.00
2014-12-21,38,36,34,-100,0,200,0,0,100,0.00,40.00,0,0,0,0.00
2014-12-22,46,39,32,-100,0,200,0,0,100,0.00,40.00,0,0,0,0.00
2014-12-23,32,30,28,-100,0,200,0,0,100,0.00,40.00,0,0,0,0.00
2014-12-24,37,30,25,-100,0,200,0,0,100,0.00,40.00,0,0,0,0.00
2014-12-25,48,39,27,-100,0,200,0,0,100,0.00,40.00,0,0,0,0.00
2014-12-26,42,31,25,-100,0,200,0,0,100,0.00,40.00,0,0,0,0.00
2014-12-27,28,25,19,-100,0,200,0,0,100,0.00,40.00,0,0,0,0.00
2014-12-28,36,24,9,-100,0,200,0,0,100,0.00,40.00,0,0,0,0.00
2014-12-29,36,30,13,-100,0,200,0,0,100,0.00,40.00,0,0,0,0.00
2014-12-30,22,10,6,-100,0,200,0,0,100,0.00,40.00,0,0,0,0.00
2014-12-31,10,7,1,-100,0,200,0,0,100,0.00,40.00,0,0,0,0.00
2015-1-1,24,18,11,-100,0,200,0,0,100,0.00,40.00,0,0,0,0.00
2015-1-2,30,27,24,-100,0,200,0,0,100,0.00,40.00,0,0,0,0.00